Time;durP1;ratioP1;P1;durP2;ratioP2;P2;SDS_P1;SDS_P2;PMS_P1;PMS_P2;Temp;Humidity;BMP_temperature;BMP_pressure;BME280_temperature;BME280_humidity;BME280_pressure;Samples;Min_cycle;Max_cycle;Signal;HPM_P1;HPM_P2
2023/06/08 00:00:08;;;;;;;24.33;9.07;;;;;;;13.71;100.00;101957.59;5081190;28;20496;-49
2023/06/08 00:02:33;;;;;;;28.40;9.85;;;;;;;13.73;100.00;101960.97;5088194;28;20043;-48
2023/06/08 00:05:02;;;;;;;33.53;10.23;;;;;;;13.67;100.00;101948.16;5081585;28;20036;-48
2023/06/08 00:07:28;;;;;;;31.55;10.00;;;;;;;13.65;100.00;101944.78;5079829;28;20103;-52
2023/06/08 00:09:54;;;;;;;26.38;9.45;;;;;;;13.62;100.00;101950.53;5090679;28;20120;-50
2023/06/08 00:12:19;;;;;;;27.17;10.25;;;;;;;13.57;100.00;101961.03;5091583;28;20486;-50
2023/06/08 00:14:45;;;;;;;24.33;10.20;;;;;;;13.54;100.00;101953.28;5090754;28;20073;-49
2023/06/08 00:17:11;;;;;;;25.38;10.48;;;;;;;13.51;100.00;101956.34;5090138;28;20058;-50
2023/06/08 00:19:36;;;;;;;22.65;9.98;;;;;;;13.47;100.00;101958.53;5083265;28;20135;-51
2023/06/08 00:22:04;;;;;;;26.80;10.25;;;;;;;13.46;100.00;101956.00;5091263;28;20032;-46
2023/06/08 00:24:34;;;;;;;24.65;10.50;;;;;;;13.43;100.00;101949.09;5091397;28;20468;-49
2023/06/08 00:26:59;;;;;;;26.83;9.95;;;;;;;13.41;100.00;101953.00;5090388;28;20051;-51
2023/06/08 00:29:25;;;;;;;27.92;11.00;;;;;;;13.37;100.00;101950.59;5084661;28;20592;-47
2023/06/08 00:31:51;;;;;;;24.77;10.35;;;;;;;13.29;100.00;101952.50;5070889;28;20112;-52
2023/06/08 00:34:17;;;;;;;22.52;9.93;;;;;;;13.29;100.00;101953.34;5069839;28;20032;-49
2023/06/08 00:36:43;;;;;;;25.75;10.90;;;;;;;13.29;100.00;101950.63;5075249;28;20656;-52
2023/06/08 00:39:08;;;;;;;22.70;11.10;;;;;;;13.29;100.00;101947.09;5090184;28;20393;-51
2023/06/08 00:41:34;;;;;;;22.73;10.40;;;;;;;13.27;100.00;101949.97;5084091;28;20036;-47
2023/06/08 00:43:59;;;;;;;33.97;11.23;;;;;;;13.29;100.00;101958.75;5080344;28;20475;-48
2023/06/08 00:46:26;;;;;;;27.20;11.05;;;;;;;13.29;100.00;101955.19;5090663;28;20637;-51
2023/06/08 00:48:53;;;;;;;24.98;12.30;;;;;;;13.23;100.00;101954.00;5074276;28;20029;-49
2023/06/08 00:51:19;;;;;;;27.58;11.70;;;;;;;13.25;100.00;101953.84;5078364;28;20518;-49
2023/06/08 00:53:46;;;;;;;26.13;11.75;;;;;;;13.20;100.00;101945.41;5079281;28;20111;-53
2023/06/08 00:56:16;;;;;;;33.20;12.60;;;;;;;13.17;100.00;101941.19;5077088;28;20490;-49
2023/06/08 00:58:46;;;;;;;29.17;12.00;;;;;;;13.13;100.00;101940.66;5079207;28;20082;-49
2023/06/08 01:01:17;;;;;;;31.23;12.77;;;;;;;13.11;100.00;101940.00;5082028;28;20047;-48
2023/06/08 01:03:44;;;;;;;29.73;12.60;;;;;;;13.05;100.00;101937.13;5090431;28;20051;-48
2023/06/08 01:06:12;;;;;;;29.85;12.30;;;;;;;13.01;100.00;101935.81;5088148;28;20031;-48
2023/06/08 01:08:52;;;;;;;31.35;12.65;;;;;;;13.05;100.00;101937.13;5069669;28;20398;-51
2023/06/08 01:11:42;;;;;;;34.20;13.13;;;;;;;13.03;100.00;101936.47;5091393;28;20044;-47
2023/06/08 01:14:34;;;;;;;32.45;13.15;;;;;;;12.94;100.00;101925.66;5094585;28;20429;-48
2023/06/08 01:17:02;;;;;;;28.92;13.90;;;;;;;12.95;100.00;101921.97;5094225;28;20457;-46
2023/06/08 01:19:58;;;;;;;27.35;13.30;;;;;;;12.93;100.00;101932.09;5089168;28;20071;-52
2023/06/08 01:23:01;;;;;;;27.00;13.98;;;;;;;12.92;100.00;101925.00;5074780;28;20064;-51
2023/06/08 01:25:30;;;;;;;34.45;14.43;;;;;;;12.91;100.00;101919.78;5083763;28;20028;-49
2023/06/08 01:28:12;;;;;;;31.13;14.38;;;;;;;12.88;100.00;101930.94;5074964;28;20063;-48
2023/06/08 01:30:39;;;;;;;34.47;14.13;;;;;;;12.81;100.00;101928.03;5057880;28;20064;-52
2023/06/08 01:33:05;;;;;;;34.83;16.27;;;;;;;12.81;100.00;101933.44;5073610;28;20063;-52
2023/06/08 01:35:30;;;;;;;35.72;14.02;;;;;;;12.72;100.00;101919.13;5091175;28;20056;-47
2023/06/08 01:37:58;;;;;;;34.78;14.75;;;;;;;12.78;100.00;101920.28;5093935;28;20032;-47
2023/06/08 01:40:33;;;;;;;32.00;14.90;;;;;;;12.74;100.00;101911.69;5081035;28;20036;-51
2023/06/08 01:42:59;;;;;;;35.10;15.00;;;;;;;12.76;100.00;101919.59;5085032;28;20129;-51
2023/06/08 01:45:26;;;;;;;28.67;14.13;;;;;;;12.71;100.00;101914.72;5091690;28;20416;-49
2023/06/08 01:47:54;;;;;;;39.65;15.10;;;;;;;12.61;100.00;101921.28;5081305;28;20020;-48
2023/06/08 01:50:20;;;;;;;37.63;15.35;;;;;;;12.59;100.00;101915.25;5076583;28;20159;-50
2023/06/08 01:52:46;;;;;;;37.58;15.10;;;;;;;12.57;100.00;101912.69;5073816;28;20067;-51
2023/06/08 01:55:16;;;;;;;64.18;17.92;;;;;;;12.54;100.00;101917.59;5077892;28;20032;-51
2023/06/08 01:57:42;;;;;;;35.60;14.65;;;;;;;12.57;100.00;101919.97;5086418;28;20039;-52
2023/06/08 02:00:08;;;;;;;33.28;16.17;;;;;;;12.51;100.00;101910.69;5077175;28;20036;-50
2023/06/08 02:02:34;;;;;;;41.90;15.05;;;;;;;12.49;100.00;101916.25;5078823;28;20036;-49
2023/06/08 02:05:00;;;;;;;33.10;15.63;;;;;;;12.52;100.00;101925.88;5088182;28;20469;-50
2023/06/08 02:07:25;;;;;;;33.35;15.35;;;;;;;12.49;100.00;101910.00;5093533;28;20390;-49
2023/06/08 02:09:50;;;;;;;42.53;15.95;;;;;;;12.45;100.00;101912.22;5079925;28;20615;-48
2023/06/08 02:12:16;;;;;;;35.72;15.57;;;;;;;12.48;100.00;101914.56;5092275;28;20036;-50
2023/06/08 02:14:41;;;;;;;32.30;15.32;;;;;;;12.48;100.00;101909.16;5093569;28;20378;-51
2023/06/08 02:17:08;;;;;;;39.53;15.48;;;;;;;12.47;100.00;101915.56;5081149;28;20035;-47
2023/06/08 02:19:34;;;;;;;37.75;14.90;;;;;;;12.45;100.00;101914.91;5074075;28;20025;-48
2023/06/08 02:22:00;;;;;;;32.03;14.82;;;;;;;12.47;100.00;101918.25;5073258;28;20029;-49
2023/06/08 02:24:26;;;;;;;37.78;14.82;;;;;;;12.48;100.00;101909.16;5071884;28;20036;-48
2023/06/08 02:26:52;;;;;;;35.65;14.93;;;;;;;12.47;100.00;101906.63;5071920;28;20020;-48
2023/06/08 02:29:17;;;;;;;27.33;13.93;;;;;;;12.48;100.00;101903.75;5074430;28;20028;-48
2023/06/08 02:31:43;;;;;;;33.60;14.63;;;;;;;12.43;100.00;101894.47;5073180;28;20067;-50
2023/06/08 02:34:09;;;;;;;24.70;13.60;;;;;;;12.43;100.00;101906.13;5071964;28;20060;-48
2023/06/08 02:36:34;;;;;;;32.72;15.15;;;;;;;12.41;100.00;101904.59;5072987;28;20029;-49
2023/06/08 02:39:00;;;;;;;36.58;14.73;;;;;;;12.34;100.00;101896.31;5078201;28;20547;-48
2023/06/08 02:41:27;;;;;;;37.53;15.07;;;;;;;12.39;100.00;101902.06;5073106;28;20029;-49
2023/06/08 02:43:52;;;;;;;32.13;15.13;;;;;;;12.40;100.00;101908.28;5076037;28;20425;-48
2023/06/08 02:46:18;;;;;;;26.75;14.52;;;;;;;12.40;100.00;101903.75;5093325;28;20031;-52
2023/06/08 02:48:43;;;;;;;41.00;15.25;;;;;;;12.35;100.00;101898.03;5088886;28;20517;-48
2023/06/08 02:51:08;;;;;;;35.50;15.48;;;;;;;12.33;100.00;101901.91;5084545;28;20028;-48
2023/06/08 02:53:33;;;;;;;32.83;14.63;;;;;;;12.29;100.00;101907.59;5072874;28;20040;-47
2023/06/08 02:55:59;;;;;;;32.33;15.10;;;;;;;12.31;100.00;101907.44;5075734;28;20043;-48
2023/06/08 02:58:24;;;;;;;35.45;16.50;;;;;;;12.31;100.00;101904.75;5091936;28;20056;-49
2023/06/08 03:00:53;;;;;;;31.77;15.32;;;;;;;12.32;100.00;101909.13;5087444;28;20024;-49
2023/06/08 03:03:23;;;;;;;31.55;15.18;;;;;;;12.30;100.00;101912.00;5073008;28;20052;-48
2023/06/08 03:05:58;;;;;;;37.13;15.68;;;;;;;12.29;100.00;101909.47;5062305;28;20074;-48
2023/06/08 03:08:28;;;;;;;34.63;15.90;;;;;;;12.30;100.00;101917.41;5085354;28;20417;-49
2023/06/08 03:10:54;;;;;;;38.17;15.05;;;;;;;12.33;100.00;101918.09;5072914;28;20039;-50
2023/06/08 03:13:21;;;;;;;34.67;14.40;;;;;;;12.28;100.00;101914.03;5088758;28;20024;-50
2023/06/08 03:15:47;;;;;;;33.33;16.00;;;;;;;12.25;100.00;101913.53;5077105;28;20159;-47
2023/06/08 03:18:13;;;;;;;30.90;15.07;;;;;;;12.33;100.00;101910.84;5077714;28;20334;-49
2023/06/08 03:20:40;;;;;;;35.53;15.40;;;;;;;12.37;100.00;101909.47;5082632;28;20111;-50
2023/06/08 03:23:06;;;;;;;41.38;15.30;;;;;;;12.41;100.00;101913.53;5083451;28;20028;-48
2023/06/08 03:25:31;;;;;;;39.78;15.27;;;;;;;12.46;100.00;101913.03;5072412;28;20539;-49
2023/06/08 03:27:57;;;;;;;31.65;14.85;;;;;;;12.52;100.00;101915.91;5075276;28;20148;-48
2023/06/08 03:30:22;;;;;;;26.38;13.95;;;;;;;12.55;100.00;101913.88;5089378;28;20024;-46
2023/06/08 03:32:51;;;;;;;35.38;15.20;;;;;;;12.58;100.00;101918.94;5058752;28;20411;-49
2023/06/08 03:35:18;;;;;;;29.13;14.38;;;;;;;12.59;100.00;101915.25;5070685;28;20094;-50
2023/06/08 03:37:43;;;;;;;33.00;14.93;;;;;;;12.63;100.00;101917.41;5088588;28;20115;-49
2023/06/08 03:40:09;;;;;;;27.67;14.15;;;;;;;12.62;100.00;101909.50;5082227;28;20103;-49
2023/06/08 03:42:34;;;;;;;27.73;13.50;;;;;;;12.67;100.00;101912.53;5087037;28;20071;-49
2023/06/08 03:45:00;;;;;;;29.73;13.77;;;;;;;12.70;100.00;101907.63;5072950;28;20416;-52
2023/06/08 03:47:25;;;;;;;28.23;14.52;;;;;;;12.71;100.00;101908.47;5074510;28;20033;-49
2023/06/08 03:49:51;;;;;;;38.65;14.80;;;;;;;12.76;100.00;101906.09;5072884;28;20510;-49
2023/06/08 03:52:16;;;;;;;24.98;13.43;;;;;;;12.75;100.00;101896.31;5083102;28;20355;-47
2023/06/08 03:54:42;;;;;;;29.70;14.20;;;;;;;12.75;100.00;101904.44;5082142;28;20115;-50
2023/06/08 03:57:08;;;;;;;37.08;14.75;;;;;;;12.75;100.00;101904.44;5089605;28;20154;-50
2023/06/08 03:59:33;;;;;;;33.63;14.07;;;;;;;12.72;100.00;101915.56;5090742;28;20040;-48
2023/06/08 04:01:58;;;;;;;30.30;13.50;;;;;;;12.74;100.00;101906.28;5084283;28;20563;-51
2023/06/08 04:04:28;;;;;;;30.73;13.98;;;;;;;12.67;100.00;101904.44;5070215;28;20039;-49
2023/06/08 04:06:54;;;;;;;31.17;14.35;;;;;;;12.65;100.00;101910.00;5075223;28;20477;-47
2023/06/08 04:09:20;;;;;;;31.05;14.23;;;;;;;12.65;100.00;101911.84;5080395;28;20162;-47
2023/06/08 04:11:45;;;;;;;26.75;13.00;;;;;;;12.62;100.00;101910.34;5072169;28;20539;-50
2023/06/08 04:14:10;;;;;;;29.38;14.15;;;;;;;12.59;100.00;101909.84;5086421;28;20521;-51
2023/06/08 04:16:36;;;;;;;39.53;14.90;;;;;;;12.64;100.00;101907.47;5081172;28;20033;-53
2023/06/08 04:19:02;;;;;;;31.70;13.77;;;;;;;12.69;100.00;101911.34;5076814;28;20032;-50
2023/06/08 04:21:28;;;;;;;51.58;17.10;;;;;;;12.72;100.00;101911.00;5090396;28;20036;-47
2023/06/08 04:23:53;;;;;;;37.40;15.13;;;;;;;12.73;100.00;101903.75;5090775;28;20036;-50
2023/06/08 04:26:18;;;;;;;30.52;12.80;;;;;;;12.77;100.00;101907.81;5084263;28;20094;-47
2023/06/08 04:28:44;;;;;;;27.85;13.35;;;;;;;12.81;100.00;101908.31;5069552;28;20067;-51
2023/06/08 04:31:09;;;;;;;40.95;14.65;;;;;;;12.83;100.00;101901.72;5069722;28;20032;-51
2023/06/08 04:33:35;;;;;;;28.52;13.60;;;;;;;12.88;100.00;101899.34;5072367;28;20020;-49
2023/06/08 04:36:01;;;;;;;26.45;13.10;;;;;;;12.94;100.00;101903.22;5070396;28;20033;-49
2023/06/08 04:38:27;;;;;;;37.70;13.25;;;;;;;12.94;100.00;101898.66;5085048;28;20089;-49
2023/06/08 04:40:53;;;;;;;30.50;13.70;;;;;;;12.96;100.00;101893.91;5069623;28;20025;-49
2023/06/08 04:43:22;;;;;;;30.58;12.52;;;;;;;12.95;100.00;101892.25;5075987;28;20032;-50
2023/06/08 04:46:00;;;;;;;26.17;13.50;;;;;;;12.99;100.00;101903.53;5085577;28;20131;-49
2023/06/08 04:48:27;;;;;;;24.92;13.05;;;;;;;13.04;100.00;101906.56;5082119;28;20028;-50
2023/06/08 04:50:53;;;;;;;27.17;13.05;;;;;;;13.01;100.00;101892.56;5084833;28;20029;-48
2023/06/08 04:53:21;;;;;;;30.70;14.43;;;;;;;13.07;100.00;101899.97;5078114;28;20115;-48
2023/06/08 04:55:46;;;;;;;35.50;14.27;;;;;;;13.08;100.00;101898.97;5092248;28;20024;-49
2023/06/08 04:58:12;;;;;;;29.77;14.50;;;;;;;13.15;100.00;101900.78;5095773;28;20101;-52
2023/06/08 05:00:38;;;;;;;27.13;13.80;;;;;;;13.24;100.00;101890.78;5095811;28;20028;-52
2023/06/08 05:03:04;;;;;;;29.70;14.23;;;;;;;13.28;100.00;101894.88;5095438;28;20086;-49
2023/06/08 05:05:29;;;;;;;32.72;14.35;;;;;;;13.26;100.00;101885.22;5094294;28;20028;-49
2023/06/08 05:07:54;;;;;;;25.27;13.68;;;;;;;13.20;100.00;101886.78;5095666;28;20397;-46
2023/06/08 05:10:20;;;;;;;32.33;14.48;;;;;;;13.25;100.00;101883.56;5095607;28;20359;-48
2023/06/08 05:12:45;;;;;;;34.03;14.45;;;;;;;13.21;100.00;101883.03;5092879;28;20028;-50
2023/06/08 05:15:11;;;;;;;31.52;15.80;;;;;;;13.20;100.00;101885.94;5087465;28;20454;-52
2023/06/08 05:17:36;;;;;;;32.13;14.10;;;;;;;13.23;100.00;101886.41;5072916;28;20102;-49
2023/06/08 05:20:02;;;;;;;27.58;13.60;;;;;;;13.38;100.00;101889.28;5089977;28;20027;-50
2023/06/08 05:22:28;;;;;;;38.15;14.55;;;;;;;13.47;100.00;101887.38;5092856;28;20527;-50
2023/06/08 05:24:53;;;;;;;26.98;14.40;;;;;;;13.60;100.00;101876.84;5079303;28;20032;-47
2023/06/08 05:27:18;;;;;;;26.40;12.93;;;;;;;13.63;100.00;101871.06;5094939;28;20074;-48
2023/06/08 05:29:44;;;;;;;38.50;14.43;;;;;;;13.70;100.00;101872.06;5093507;28;20036;-51
2023/06/08 05:32:09;;;;;;;24.73;13.50;;;;;;;13.84;100.00;101871.28;5092997;28;20110;-49
2023/06/08 05:34:35;;;;;;;32.60;14.13;;;;;;;13.96;100.00;101876.31;5094438;28;20050;-48
2023/06/08 05:37:00;;;;;;;30.20;13.18;;;;;;;14.00;100.00;101867.63;5094395;28;20106;-48
2023/06/08 05:39:25;;;;;;;31.77;13.85;;;;;;;14.03;100.00;101877.25;5094195;28;20028;-53
2023/06/08 05:41:51;;;;;;;33.72;14.25;;;;;;;14.06;100.00;101876.91;5092698;28;20450;-50
2023/06/08 05:44:16;;;;;;;30.20;13.48;;;;;;;14.11;100.00;101865.53;5093531;28;20032;-50
2023/06/08 05:46:42;;;;;;;29.48;12.73;;;;;;;14.13;100.00;101864.31;5091171;28;20028;-53
2023/06/08 05:49:07;;;;;;;27.95;14.40;;;;;;;14.25;100.00;101862.91;5081942;28;20419;-49
2023/06/08 05:51:32;;;;;;;26.65;12.40;;;;;;;14.39;100.00;101868.53;5081115;28;20462;-49
2023/06/08 05:53:58;;;;;;;32.20;13.38;;;;;;;14.39;100.00;101860.41;5092838;28;20081;-49
2023/06/08 05:56:23;;;;;;;25.92;13.23;;;;;;;14.50;100.00;101855.38;5090859;28;20056;-49
2023/06/08 05:58:48;;;;;;;32.15;13.52;;;;;;;14.64;100.00;101844.78;5093144;28;20087;-50
2023/06/08 06:01:14;;;;;;;34.45;13.95;;;;;;;14.71;100.00;101845.75;5089204;28;20054;-48
2023/06/08 06:03:40;;;;;;;32.45;13.07;;;;;;;14.79;100.00;101839.41;5092213;28;20024;-48
2023/06/08 06:06:06;;;;;;;29.60;13.38;;;;;;;14.88;100.00;101841.84;5088818;28;20050;-50
2023/06/08 06:08:32;;;;;;;26.33;12.82;;;;;;;15.04;100.00;101838.13;5072425;28;20039;-49
2023/06/08 06:10:57;;;;;;;22.33;12.00;;;;;;;15.23;100.00;101842.13;5072949;28;20020;-50
2023/06/08 06:13:22;;;;;;;34.78;13.18;;;;;;;15.29;100.00;101835.09;5071750;28;20186;-48
2023/06/08 06:15:48;;;;;;;29.90;13.40;;;;;;;15.35;100.00;101832.50;5077711;28;20481;-49
2023/06/08 06:18:13;;;;;;;22.88;11.98;;;;;;;15.44;100.00;101835.94;5082007;28;20035;-50
2023/06/08 06:20:38;;;;;;;32.90;12.40;;;;;;;15.63;100.00;101829.06;5071819;28;20075;-49
2023/06/08 06:23:04;;;;;;;25.15;12.55;;;;;;;15.87;100.00;101832.47;5071536;28;20092;-49
2023/06/08 06:25:29;;;;;;;28.58;11.63;;;;;;;16.06;100.00;101820.13;5071652;28;20099;-51
2023/06/08 06:27:54;;;;;;;21.73;11.45;;;;;;;16.19;100.00;101826.53;5071502;28;20102;-50
2023/06/08 06:30:20;;;;;;;25.25;12.20;;;;;;;16.29;100.00;101825.34;5075841;28;20081;-48
2023/06/08 06:32:45;;;;;;;26.77;10.98;;;;;;;16.34;100.00;101818.28;5079268;28;20117;-53
2023/06/08 06:35:11;;;;;;;18.73;11.50;;;;;;;16.46;100.00;101826.78;5081358;28;20032;-50
2023/06/08 06:37:37;;;;;;;23.23;10.60;;;;;;;16.70;100.00;101830.91;5084830;28;20611;-52
2023/06/08 06:40:06;;;;;;;32.78;11.82;;;;;;;16.97;100.00;101828.41;5087986;28;20038;-48
2023/06/08 06:42:32;;;;;;;22.00;11.50;;;;;;;17.07;100.00;101821.56;5092859;28;20039;-48
2023/06/08 06:44:58;;;;;;;21.83;10.82;;;;;;;16.98;100.00;101830.94;5089838;28;20461;-48
2023/06/08 06:47:24;;;;;;;24.80;10.23;;;;;;;17.05;100.00;101820.91;5090663;28;20039;-47
2023/06/08 06:49:50;;;;;;;23.45;11.43;;;;;;;17.22;100.00;101824.16;5081662;28;20408;-49
2023/06/08 06:52:15;;;;;;;21.30;10.25;;;;;;;17.39;100.00;101826.50;5089959;28;20036;-53
2023/06/08 06:54:40;;;;;;;20.83;10.65;;;;;;;17.63;100.00;101822.41;5087723;28;20061;-50
2023/06/08 06:57:07;;;;;;;21.02;10.02;;;;;;;17.98;100.00;101821.28;5071199;28;20045;-50
2023/06/08 06:59:32;;;;;;;25.70;10.95;;;;;;;18.50;100.00;101829.66;5086566;28;20457;-49
2023/06/08 07:01:57;;;;;;;23.80;9.95;;;;;;;18.94;100.00;101830.91;5081643;28;20474;-49
2023/06/08 07:04:23;;;;;;;20.02;9.27;;;;;;;19.87;100.00;101819.59;5091619;28;20415;-53
2023/06/08 07:06:52;;;;;;;17.30;8.63;;;;;;;20.70;100.00;101828.66;5088240;28;20594;-51
2023/06/08 07:09:21;;;;;;;17.23;8.85;;;;;;;21.31;100.00;101818.72;5069038;28;20047;-50
2023/06/08 07:11:47;;;;;;;16.65;7.40;;;;;;;22.01;100.00;101820.91;5068644;28;20028;-50
2023/06/08 07:14:12;;;;;;;16.83;7.82;;;;;;;22.53;98.64;101821.97;5091224;28;20059;-49
2023/06/08 07:16:38;;;;;;;19.30;7.70;;;;;;;22.91;97.13;101826.16;5110255;28;20111;-48
2023/06/08 07:19:04;;;;;;;15.32;8.18;;;;;;;23.58;91.73;101824.81;5107726;28;20404;-50
2023/06/08 07:21:30;;;;;;;19.00;7.90;;;;;;;24.01;89.41;101824.28;5091727;28;20141;-51
2023/06/08 07:23:57;;;;;;;19.45;8.63;;;;;;;24.04;87.49;101821.03;5091457;28;20064;-50
2023/06/08 07:26:22;;;;;;;;;;;;;;;24.41;85.15;101820.56;5090382;28;20036;-53
2023/06/08 07:28:52;;;;;;;14.60;8.30;;;;;;;24.43;85.97;101806.53;5091072;28;19919;-52
2023/06/08 07:31:17;;;;;;;17.88;7.72;;;;;;;25.18;80.69;101819.78;5089239;28;20302;-53
2023/06/08 07:33:42;;;;;;;17.85;9.18;;;;;;;25.44;77.59;101822.84;5091836;28;20020;-52
2023/06/08 07:36:08;;;;;;;19.70;9.23;;;;;;;25.33;79.06;101819.16;5076565;28;20662;-54
2023/06/08 07:38:33;;;;;;;19.73;8.18;;;;;;;25.50;77.28;101818.22;5072858;28;20497;-48
2023/06/08 07:40:58;;;;;;;19.45;7.72;;;;;;;25.77;76.46;101809.97;5085549;28;20545;-49
2023/06/08 07:43:24;;;;;;;15.43;7.90;;;;;;;26.14;73.43;101820.25;5090109;28;20071;-53
2023/06/08 07:45:49;;;;;;;15.10;8.52;;;;;;;26.17;71.60;101811.44;5090605;28;20031;-51
2023/06/08 07:48:14;;;;;;;19.33;8.55;;;;;;;26.02;74.11;101813.00;5089863;28;20105;-53
2023/06/08 07:50:40;;;;;;;13.75;8.20;;;;;;;26.10;73.90;101808.09;5090174;28;20103;-51
2023/06/08 07:53:05;;;;;;;19.58;9.07;;;;;;;26.25;72.28;101816.47;5089911;28;20039;-51
2023/06/08 07:55:30;;;;;;;19.10;9.20;;;;;;;26.15;71.37;101805.38;5090150;28;20026;-49
2023/06/08 07:57:56;;;;;;;19.15;9.48;;;;;;;25.82;72.68;101807.25;5088621;28;20058;-49
2023/06/08 08:00:22;;;;;;;14.27;8.20;;;;;;;26.06;71.30;101810.53;5088697;28;20067;-51
2023/06/08 08:02:47;;;;;;;18.90;8.68;;;;;;;26.23;70.91;101807.66;5089681;28;20603;-48
2023/06/08 08:05:13;;;;;;;19.10;8.65;;;;;;;26.32;69.23;101806.06;5089896;28;20496;-52
2023/06/08 08:07:40;;;;;;;18.90;7.80;;;;;;;26.58;69.51;101806.28;5089989;28;20382;-51
2023/06/08 08:10:06;;;;;;;21.23;7.85;;;;;;;26.57;70.28;101801.84;5088762;28;20062;-52
2023/06/08 08:12:31;;;;;;;16.40;7.28;;;;;;;27.30;67.61;101808.31;5090368;28;20114;-50
2023/06/08 08:14:57;;;;;;;15.73;7.05;;;;;;;27.35;65.50;101797.28;5088708;28;20062;-50
2023/06/08 08:17:23;;;;;;;18.10;7.90;;;;;;;27.73;63.34;101806.22;5090156;28;20085;-50
2023/06/08 08:19:48;;;;;;;15.98;8.25;;;;;;;27.44;63.15;101808.66;5090271;28;20032;-50
2023/06/08 08:22:13;;;;;;;15.45;7.30;;;;;;;26.96;67.37;101799.56;5089864;28;20075;-51
2023/06/08 08:24:39;;;;;;;11.50;6.78;;;;;;;27.16;66.15;101801.59;5090217;28;20032;-51
2023/06/08 08:27:05;;;;;;;20.95;6.78;;;;;;;26.66;65.66;101811.28;5089858;28;20032;-50
2023/06/08 08:29:30;;;;;;;15.32;6.82;;;;;;;25.87;69.35;101801.81;5088880;28;20090;-48
2023/06/08 08:31:56;;;;;;;17.58;7.13;;;;;;;25.16;72.55;101799.09;5089960;28;20052;-51
2023/06/08 08:34:22;;;;;;;13.88;6.80;;;;;;;24.54;74.87;101797.41;5088304;28;20397;-49
2023/06/08 08:36:47;;;;;;;18.23;6.47;;;;;;;24.12;78.27;101794.19;5089584;28;20618;-49
2023/06/08 08:39:14;;;;;;;12.73;6.10;;;;;;;24.65;77.49;101798.38;5090276;28;20106;-48
2023/06/08 08:41:41;;;;;;;17.58;6.25;;;;;;;25.19;75.82;101793.06;5089838;28;20090;-48
2023/06/08 08:44:14;;;;;;;14.63;6.45;;;;;;;25.98;71.32;101800.81;5088316;28;20385;-47
2023/06/08 08:46:42;;;;;;;12.18;6.38;;;;;;;26.62;70.24;101790.81;5090171;28;20032;-48
2023/06/08 08:49:17;;;;;;;13.80;5.95;;;;;;;27.14;66.96;101796.34;5088106;28;20028;-49
2023/06/08 08:51:52;;;;;;;9.77;5.50;;;;;;;27.02;66.70;101794.94;5089892;28;20377;-51
2023/06/08 08:54:25;;;;;;;12.02;6.07;;;;;;;26.92;66.20;101785.47;5089511;28;20398;-49
2023/06/08 08:56:55;;;;;;;16.23;6.55;;;;;;;27.63;64.52;101784.09;5090474;28;20101;-51
2023/06/08 08:59:23;;;;;;;12.48;5.90;;;;;;;27.86;62.63;101792.97;5088735;28;20048;-52
2023/06/08 09:01:48;;;;;;;14.20;6.07;;;;;;;27.49;59.71;101796.75;5089865;28;20032;-55
2023/06/08 09:04:13;;;;;;;18.63;5.55;;;;;;;27.28;60.73;101793.97;5089517;28;20450;-47
2023/06/08 09:06:44;;;;;;;15.40;6.45;;;;;;;27.26;62.29;101798.09;5090000;28;20473;-48
2023/06/08 09:09:11;;;;;;;14.18;6.55;;;;;;;27.51;62.29;101798.16;5088728;28;20171;-48
2023/06/08 09:11:58;;;;;;;13.55;6.10;;;;;;;27.36;62.84;101796.19;5088501;28;20032;-48
2023/06/08 09:14:24;;;;;;;12.40;6.00;;;;;;;27.57;61.55;101793.50;5089565;28;20036;-51
2023/06/08 09:16:50;;;;;;;12.85;6.75;;;;;;;27.76;60.03;101796.56;5088379;28;20020;-49
2023/06/08 09:19:15;;;;;;;15.63;5.75;;;;;;;28.11;60.16;101793.00;5089315;28;20500;-50
2023/06/08 09:21:43;;;;;;;18.70;6.80;;;;;;;27.94;59.64;101789.69;5089812;28;20043;-47
2023/06/08 09:24:12;;;;;;;12.52;6.13;;;;;;;27.74;61.50;101791.28;5089556;28;20089;-49
2023/06/08 09:26:51;;;;;;;14.98;6.22;;;;;;;27.49;62.95;101791.22;5089209;28;20107;-53
2023/06/08 09:29:34;;;;;;;11.02;5.97;;;;;;;27.67;61.42;101778.81;5089572;28;20028;-49
2023/06/08 09:32:03;;;;;;;17.17;6.13;;;;;;;27.95;62.83;101785.81;5090781;28;20051;-48
2023/06/08 09:34:29;;;;;;;15.70;5.93;;;;;;;28.31;61.66;101783.03;5091525;28;20435;-49
2023/06/08 09:37:08;;;;;;;13.05;6.10;;;;;;;28.80;58.58;101779.63;5093205;28;20032;-49
2023/06/08 09:39:39;;;;;;;12.60;6.32;;;;;;;28.85;57.56;101774.88;5091761;28;20036;-48
2023/06/08 09:42:05;;;;;;;15.98;6.30;;;;;;;28.99;57.54;101772.34;5074919;28;20048;-49
2023/06/08 09:44:31;;;;;;;11.55;6.03;;;;;;;28.95;57.25;101774.03;5093515;28;20036;-49
2023/06/08 09:46:57;;;;;;;11.70;6.00;;;;;;;29.03;56.93;101770.66;5074850;28;20111;-48
2023/06/08 09:49:22;;;;;;;11.68;5.43;;;;;;;29.23;57.12;101775.31;5092767;28;20541;-52
2023/06/08 09:51:51;;;;;;;11.65;5.38;;;;;;;29.30;54.96;101769.44;5091520;28;20450;-50
2023/06/08 09:54:20;;;;;;;14.65;5.65;;;;;;;29.42;54.54;101761.63;5092862;28;20089;-52
2023/06/08 09:56:48;;;;;;;11.80;4.97;;;;;;;29.63;53.82;101762.31;5092894;28;20028;-53
2023/06/08 09:59:16;;;;;;;11.38;5.00;;;;;;;29.91;53.64;101757.97;5091354;28;20821;-53
2023/06/08 10:02:05;;;;;;;9.02;5.00;;;;;;;29.94;52.89;101762.94;5092933;28;20028;-51
2023/06/08 10:04:41;;;;;;;8.95;5.32;;;;;;;29.82;52.42;101762.47;5091224;28;20043;-53
2023/06/08 10:07:11;;;;;;;16.10;5.80;;;;;;;29.24;51.22;101771.41;5074201;28;20038;-51
2023/06/08 10:09:43;;;;;;;15.30;5.25;;;;;;;28.61;53.78;101763.59;5090048;28;20127;-50
2023/06/08 10:12:09;;;;;;;12.73;5.72;;;;;;;28.52;53.39;101773.63;5089705;28;20478;-49
2023/06/08 10:14:35;;;;;;;10.90;5.10;;;;;;;28.00;54.12;101760.91;5090698;28;20123;-48
2023/06/08 10:17:02;;;;;;;12.15;5.85;;;;;;;27.97;55.09;101745.69;5086529;28;20032;-49
2023/06/08 10:19:27;;;;;;;10.45;5.65;;;;;;;27.90;55.69;101763.66;5081121;28;20066;-52
2023/06/08 10:21:53;;;;;;;14.13;5.68;;;;;;;27.74;56.36;101758.09;5084396;28;20072;-47
2023/06/08 10:24:21;;;;;;;11.13;5.65;;;;;;;27.65;59.06;101751.47;5075111;28;20095;-47
2023/06/08 10:26:48;;;;;;;15.70;5.32;;;;;;;28.19;57.13;101750.91;5090212;28;20059;-48
2023/06/08 10:29:14;;;;;;;11.20;5.38;;;;;;;27.94;55.15;101753.72;5091294;28;20035;-48
2023/06/08 10:31:41;;;;;;;11.77;5.40;;;;;;;27.42;57.23;101755.56;5092365;28;20051;-48
2023/06/08 10:34:07;;;;;;;;;;;;;;;27.33;58.47;101755.28;5092329;28;20028;-49
2023/06/08 10:36:36;;;;;;;9.73;5.30;;;;;;;27.57;57.94;101755.59;5071888;28;19988;-50
2023/06/08 10:39:10;;;;;;;9.18;5.28;;;;;;;27.73;57.68;101750.91;5071597;28;20276;-49
2023/06/08 10:41:56;;;;;;;10.02;5.65;;;;;;;27.88;56.79;101750.09;5083898;28;20140;-48
2023/06/08 10:44:27;;;;;;;9.50;5.00;;;;;;;27.55;56.87;101759.75;5069075;28;20437;-50
2023/06/08 10:47:01;;;;;;;12.43;5.10;;;;;;;27.44;57.94;101749.78;5070329;28;20029;-49
2023/06/08 10:49:45;;;;;;;12.20;5.22;;;;;;;27.93;57.59;101740.97;5069903;28;20036;-48
2023/06/08 10:52:17;;;;;;;12.55;5.40;;;;;;;28.21;56.54;101747.88;5082963;28;20032;-48
2023/06/08 10:54:51;;;;;;;10.70;4.88;;;;;;;28.39;56.86;101746.47;5091642;28;20043;-49
2023/06/08 10:57:40;;;;;;;12.48;4.57;;;;;;;28.38;55.69;101731.78;5081633;28;20471;-49
2023/06/08 11:00:21;;;;;;;14.13;5.88;;;;;;;28.51;54.37;101744.25;5070286;28;20033;-50
2023/06/08 11:02:48;;;;;;;14.43;4.50;;;;;;;28.61;55.42;101738.69;5074596;28;20121;-48
2023/06/08 11:05:14;;;;;;;;;;;;;;;28.81;54.44;101735.03;5079634;28;20036;-50
2023/06/08 11:07:40;;;;;;;10.95;4.63;;;;;;;28.73;54.46;101737.56;5071333;28;19919;-50
2023/06/08 11:10:06;;;;;;;14.15;5.03;;;;;;;28.96;54.21;101728.56;5075345;28;20020;-50